Soaring Guidance
Issued by NWS Reno, NV

Home | Current Version | Previous Version | Text Only | Print | Product List | Glossary On
Versions: 1 2 3 4 5 6 7 8 9 10 11 12 13 14
000
UXUS97 KREV 051346
SRGREV

SOARING FORECAST
NATIONAL WEATHER SERVICE - RENO NV
700 AM PDT SAT SEP 5 2015

THIS SOARING FORECAST IS FOR THE EASTERN SIERRA AND WESTERN NEVADA
WITH SPECIFIC INDICES FOR THE GREATER RENO AREA.

THIS FORECAST IS PREPARED DAILY BY 700 AM AND IS NOT UPDATED.

FOR CURRENT FLIGHT CONDITIONS...FORECASTS...AND ADVISORIES...ACCESS
YOUR LOCAL BRIEFING OUTLET OR FLIGHT SERVICE STATION.

*******************************************************************
FORECASTED LOCAL INDICES FOR RENO:        TODAY     YESTERDAY
FORECASTED MAX TEMP AT RENO (DEG F).....     75          77
FORECASTED TRIGGER TEMPERATURE (DEG F)..     62          62
   EXCEEDED YESTERDAY BY 955 AM PDT
FORECASTED MAXIMUM ALTITUDE (FT MSL)....  13900       13900
FORECASTED SOARING INDEX (FPM)..........    717         717
FORECASTED K-INDEX.........VALID 18Z....     -1           8
FORECASTED K-INDEX.........VALID 00Z....      6          15
FORECASTED LIFTED INDEX....VALID 18Z....     14           7
FORECASTED LIFTED INDEX....VALID 00Z....     11           6

AFTERNOON WINDS ALOFT FORECAST
MSL (FT) WIND/TEMP
9000  9900/+05
10000 9905/+02
12000 2414/-02
14000 2517/-04
16000 2721/-07
18000 2932/-10
24000 3038/-22
30000 2940/-40
34000 3043/-49
39000 3042/-57

SLIDE MOUNTAIN DATA:
     DATE       TIME     TEMP  DEWPT   RH         WIND (MPH)
                        (F)   (F)           | DIR  SPEED GUST
2015-09-05    05:50      31     8     36    | 248   24   38
2015-09-05    05:30      31     7     35    | 248   23   34
2015-09-05    05:20      31     5     30    | 248   23   33
2015-09-05    05:00      31     3     24    | 251   22   35

RENO TAF FORECAST:
KRNO 051120Z 0512/0612 35009KT P6SM SKC
     FM051400 VRB04KT P6SM SKC
     FM052000 02008KT P6SM SKC
     FM060400 VRB03KT P6SM SKC

CARSON CITY TAF FORECAST:
KCXP 051120Z 0512/0612 VRB04KT P6SM SKC
     FM051600 07008G16KT P6SM SKC
     FM052100 01007KT P6SM SKC
     FM060200 VRB03KT P6SM SKC

OUTLOOK FOR THE RENO-CARSON CITY-MINDEN AREA:
.SUNDAY...SUNNY. HIGHS 75 TO 80. LIGHT WINDS BECOMING EAST AROUND
10 MPH IN THE AFTERNOON.

SUNRISE AND SUNSET
SEPTEMBER  5 2015.....SUNRISE   631 AM PDT   SUNSET   724 PM PDT
SEPTEMBER  6 2015.....SUNRISE   632 AM PDT   SUNSET   722 PM PDT



USA.gov is the U.S. government's official web portal to all federal, state and local government web resources and services.